createdAt,value
2022-11-12T00:02:42.538Z,102784.31
2022-11-12T00:05:27.418Z,102777.25
2022-11-12T00:08:13.966Z,102783.25
2022-11-12T00:10:58.857Z,102770.41
2022-11-12T00:13:43.745Z,102775.09
2022-11-12T00:16:28.614Z,102772.72
2022-11-12T00:19:13.296Z,102777.63
2022-11-12T00:21:58.235Z,102778.28
2022-11-12T00:24:43.019Z,102770.13
2022-11-12T00:27:28.093Z,102776.50
2022-11-12T00:30:13.158Z,102768.38
2022-11-12T00:33:02.689Z,102767.94
2022-11-12T00:35:48.858Z,102771.56
2022-11-12T00:38:33.736Z,102773.31
2022-11-12T00:41:18.646Z,102771.38
2022-11-12T00:44:03.885Z,102772.47
2022-11-12T00:46:49.050Z,102770.72
2022-11-12T00:49:34.020Z,102770.06
2022-11-12T00:52:18.839Z,102773.44
2022-11-12T00:55:04.323Z,102783.28
2022-11-12T00:57:49.329Z,102779.00
2022-11-12T01:00:34.350Z,102777.28
2022-11-12T01:03:19.374Z,102773.84
2022-11-12T01:06:05.795Z,102784.69
2022-11-12T01:08:51.610Z,102773.94
2022-11-12T01:11:36.533Z,102778.94
2022-11-12T01:14:21.588Z,102772.34
2022-11-12T01:17:06.380Z,102767.66
2022-11-12T01:19:51.278Z,102764.88
2022-11-12T01:22:36.031Z,102777.47
2022-11-12T01:25:20.812Z,102771.91
2022-11-12T01:28:05.686Z,102767.41
2022-11-12T01:30:50.494Z,102772.25
2022-11-12T01:33:35.484Z,102772.25
2022-11-12T01:36:21.146Z,102770.97
2022-11-12T01:39:08.288Z,102776.94
2022-11-12T01:41:53.601Z,102778.66
2022-11-12T01:44:42.164Z,102783.75
2022-11-12T01:47:30.749Z,102786.53
2022-11-12T01:50:33.119Z,102789.56
2022-11-12T01:53:19.424Z,102786.13
2022-11-12T01:56:05.893Z,102794.88
2022-11-12T01:59:02.302Z,102797.41
2022-11-12T02:01:47.422Z,102793.97
2022-11-12T02:04:34.532Z,102791.19
2022-11-12T02:07:22.656Z,102788.41
2022-11-12T02:10:09.580Z,102791.00
2022-11-12T02:13:13.273Z,102788.56
2022-11-12T02:15:58.761Z,102799.03
2022-11-12T02:18:43.862Z,102792.94
2022-11-12T02:21:29.276Z,102787.78
2022-11-12T02:24:13.998Z,102792.75
2022-11-12T02:26:59.829Z,102786.69
2022-11-12T02:29:47.556Z,102797.97
2022-11-12T02:32:32.615Z,102795.22
2022-11-12T02:35:17.495Z,102792.66
2022-11-12T02:38:03.134Z,102799.72
2022-11-12T02:40:48.297Z,102799.94
2022-11-12T02:43:33.739Z,102796.47
2022-11-12T02:46:19.415Z,102800.56
2022-11-12T02:49:04.425Z,102804.53
2022-11-12T02:51:49.318Z,102805.56
2022-11-12T02:54:34.219Z,102809.63
2022-11-12T02:57:19.132Z,102813.22
2022-11-12T03:00:06.145Z,102813.00
2022-11-12T03:03:00.235Z,102816.97
2022-11-12T03:05:46.582Z,102818.91
2022-11-12T03:08:31.363Z,102818.78
2022-11-12T03:11:17.466Z,102824.47
2022-11-12T03:14:02.743Z,102820.34
2022-11-12T03:16:47.794Z,102814.75
2022-11-12T03:19:32.697Z,102826.91
2022-11-12T03:22:17.654Z,102836.09
2022-11-12T03:25:02.586Z,102828.66
2022-11-12T03:27:47.482Z,102835.50
2022-11-12T03:30:35.858Z,102836.16
2022-11-12T03:33:20.924Z,102841.31
2022-11-12T03:36:06.130Z,102832.31
2022-11-12T03:38:51.079Z,102836.63
2022-11-12T03:41:35.862Z,102831.75
2022-11-12T03:44:20.816Z,102837.34
2022-11-12T03:47:05.570Z,102824.84
2022-11-12T03:49:50.481Z,102832.47
2022-11-12T03:52:35.534Z,102821.69
2022-11-12T03:55:22.205Z,102818.38
2022-11-12T03:58:07.562Z,102819.44
2022-11-12T04:00:52.696Z,102827.75
2022-11-12T04:03:37.536Z,102819.44
2022-11-12T04:06:41.515Z,102823.53
2022-11-12T04:09:26.704Z,102832.59
2022-11-12T04:12:30.313Z,102831.06
2022-11-12T04:15:15.638Z,102830.72
2022-11-12T04:18:19.150Z,102828.56
2022-11-12T04:21:22.976Z,102821.94
2022-11-12T04:24:08.163Z,102829.28
2022-11-12T04:26:52.995Z,102834.38
2022-11-12T04:29:56.620Z,102832.78
2022-11-12T04:32:54.524Z,102836.50
2022-11-12T04:35:39.389Z,102835.28
2022-11-12T04:38:24.629Z,102840.06
2022-11-12T04:41:28.437Z,102836.88
2022-11-12T04:44:32.418Z,102834.94
2022-11-12T04:47:17.828Z,102841.44
2022-11-12T04:50:13.017Z,102838.44
2022-11-12T04:52:58.159Z,102838.78
2022-11-12T04:55:42.985Z,102845.78
2022-11-12T04:58:28.228Z,102843.81
2022-11-12T05:01:13.181Z,102843.13
2022-11-12T05:03:58.216Z,102852.72
2022-11-12T05:06:53.203Z,102847.88
2022-11-12T05:09:38.685Z,102846.81
2022-11-12T05:12:23.572Z,102855.44
2022-11-12T05:15:09.373Z,102840.22
2022-11-12T05:17:54.513Z,102843.94
2022-11-12T05:20:39.425Z,102844.50
2022-11-12T05:23:24.298Z,102849.94
2022-11-12T05:26:09.152Z,102853.00
2022-11-12T05:28:54.150Z,102858.97
2022-11-12T05:31:39.360Z,102862.34
2022-11-12T05:34:24.264Z,102864.03
2022-11-12T05:37:10.855Z,102859.97
2022-11-12T05:39:56.191Z,102861.28
2022-11-12T05:42:41.010Z,102866.75
2022-11-12T05:45:25.926Z,102871.44
2022-11-12T05:48:11.029Z,102865.41
2022-11-12T05:51:12.424Z,102872.19
2022-11-12T05:53:57.830Z,102874.78
2022-11-12T05:56:42.868Z,102874.41
2022-11-12T05:59:27.760Z,102877.94
2022-11-12T06:02:12.791Z,102872.19
2022-11-12T06:04:58.196Z,102879.09
2022-11-12T06:07:43.185Z,102885.41
2022-11-12T06:10:27.933Z,102878.72
2022-11-12T06:13:13.043Z,102877.19
2022-11-12T06:15:57.997Z,102886.25
2022-11-12T06:18:43.230Z,102879.41
2022-11-12T06:21:28.467Z,102871.94
2022-11-12T06:24:14.178Z,102880.06
2022-11-12T06:26:59.077Z,102885.41
2022-11-12T06:29:44.021Z,102882.94
2022-11-12T06:32:28.901Z,102891.53
2022-11-12T06:35:14.037Z,102890.84
2022-11-12T06:37:59.271Z,102882.63
2022-11-12T06:40:44.157Z,102893.84
2022-11-12T06:43:31.226Z,102891.59
2022-11-12T06:46:17.578Z,102907.19
2022-11-12T06:49:02.881Z,102913.13
2022-11-12T06:51:50.361Z,102913.41
2022-11-12T06:54:35.482Z,102906.25
2022-11-12T06:57:20.315Z,102913.72
2022-11-12T07:00:05.797Z,102921.66
2022-11-12T07:02:50.560Z,102919.16
2022-11-12T07:05:37.976Z,102919.44
2022-11-12T07:08:23.023Z,102913.63
2022-11-12T07:11:08.534Z,102919.81
2022-11-12T07:13:53.725Z,102915.53
2022-11-12T07:16:38.589Z,102929.88
2022-11-12T07:19:23.554Z,102935.50
2022-11-12T07:22:08.427Z,102937.41
2022-11-12T07:24:53.427Z,102946.50
2022-11-12T07:27:38.188Z,102944.41
2022-11-12T07:30:23.110Z,102951.47
2022-11-12T07:33:08.053Z,102944.00
2022-11-12T07:36:07.067Z,102948.19
2022-11-12T07:38:53.408Z,102948.00
2022-11-12T07:41:38.545Z,102946.66
2022-11-12T07:44:23.401Z,102943.97
2022-11-12T07:47:08.218Z,102945.75
2022-11-12T07:49:53.090Z,102951.97
2022-11-12T07:52:37.942Z,102944.47
2022-11-12T07:55:22.854Z,102948.91
2022-11-12T07:58:07.757Z,102947.94
2022-11-12T08:00:53.308Z,102950.00
2022-11-12T08:03:38.277Z,102954.59
2022-11-12T08:06:23.726Z,102951.91
2022-11-12T08:09:10.015Z,102945.59
2022-11-12T08:11:55.400Z,102956.00
2022-11-12T08:14:40.426Z,102951.41
2022-11-12T08:17:25.373Z,102963.09
2022-11-12T08:20:10.485Z,102958.25
2022-11-12T08:22:59.878Z,102950.00
2022-11-12T08:25:45.126Z,102961.63
2022-11-12T08:28:31.638Z,102947.78
2022-11-12T08:31:19.930Z,102942.22
2022-11-12T08:34:12.325Z,102941.38
2022-11-12T08:36:57.565Z,102953.88
2022-11-12T08:39:42.351Z,102951.34
2022-11-12T08:42:27.278Z,102954.78
2022-11-12T08:45:12.109Z,102947.09
2022-11-12T08:48:19.131Z,102951.81
2022-11-12T08:51:05.430Z,102938.34
2022-11-12T08:53:50.904Z,102948.22
2022-11-12T08:56:36.049Z,102948.84
2022-11-12T08:59:21.000Z,102950.38
2022-11-12T09:02:06.689Z,102955.09
2022-11-12T09:04:51.816Z,102943.31
2022-11-12T09:07:49.270Z,102944.81
2022-11-12T09:10:35.510Z,102949.34
2022-11-12T09:13:21.019Z,102950.38
2022-11-12T09:16:08.962Z,102943.50
2022-11-12T09:18:53.969Z,102954.63
2022-11-12T09:21:38.889Z,102953.75
2022-11-12T09:24:23.811Z,102950.53
2022-11-12T09:27:08.617Z,102957.78
2022-11-12T09:29:53.624Z,102960.47
2022-11-12T09:32:38.750Z,102962.56
2022-11-12T09:35:23.893Z,102965.94
2022-11-12T09:38:09.006Z,102954.47
2022-11-12T09:40:54.110Z,102953.97
2022-11-12T09:43:51.404Z,102961.19
2022-11-12T09:46:54.981Z,102954.59
2022-11-12T09:49:52.325Z,102955.19
2022-11-12T09:52:39.180Z,102953.56
2022-11-12T09:55:32.093Z,102950.59
2022-11-12T09:58:19.298Z,102954.59
2022-11-12T10:01:15.253Z,102943.88
2022-11-12T10:04:21.538Z,102948.50
2022-11-12T10:07:11.593Z,102932.22
2022-11-12T10:10:05.346Z,102959.47
2022-11-12T10:13:06.788Z,102961.94
2022-11-12T10:16:30.728Z,102945.28
2022-11-12T10:19:42.989Z,102942.28
2022-11-12T10:22:40.625Z,102935.91
2022-11-12T10:25:25.863Z,102950.69
2022-11-12T10:28:38.726Z,102947.31
2022-11-12T10:31:24.508Z,102940.50
2022-11-12T10:34:19.107Z,102947.03
2022-11-12T10:37:14.917Z,102950.47
2022-11-12T10:40:00.598Z,102949.50
2022-11-12T10:43:01.297Z,102943.69
2022-11-12T10:45:48.297Z,102952.47
2022-11-12T10:48:34.149Z,102951.00
2022-11-12T10:51:26.758Z,102936.88
2022-11-12T10:54:27.015Z,102934.56
2022-11-12T10:57:27.012Z,102946.91
2022-11-12T11:00:12.112Z,102938.63
2022-11-12T11:02:57.291Z,102938.72
2022-11-12T11:06:02.030Z,102950.81
2022-11-12T11:09:07.726Z,102938.09
2022-11-12T11:11:54.041Z,102944.81
2022-11-12T11:14:40.549Z,102943.34
2022-11-12T11:17:25.351Z,102937.94
2022-11-12T11:20:22.611Z,102942.47
2022-11-12T11:23:49.498Z,102938.88
2022-11-12T11:26:42.353Z,102931.81
2022-11-12T11:29:47.807Z,102941.94
2022-11-12T11:33:02.501Z,102950.50
2022-11-12T11:36:18.024Z,102921.38
2022-11-12T11:39:06.798Z,102923.78
2022-11-12T11:42:13.815Z,102920.38
2022-11-12T11:45:29.711Z,102903.25
2022-11-12T11:48:45.565Z,102911.44
2022-11-12T11:51:51.746Z,102909.13
2022-11-12T11:55:15.615Z,102912.16
2022-11-12T11:58:16.756Z,102911.53
2022-11-12T12:01:19.695Z,102917.78
2022-11-12T12:04:33.595Z,102901.59
2022-11-12T12:07:35.194Z,102909.88
2022-11-12T12:10:40.188Z,102926.00
2022-11-12T12:13:49.660Z,102911.34
2022-11-12T12:17:08.879Z,102906.41
2022-11-12T12:20:18.480Z,102908.44
2022-11-12T12:23:10.776Z,102900.84
2022-11-12T12:26:00.542Z,102881.75
2022-11-12T12:28:54.803Z,102898.13
2022-11-12T12:31:58.670Z,102892.41
2022-11-12T12:34:46.362Z,102878.84
2022-11-12T12:37:42.408Z,102874.78
2022-11-12T12:40:58.837Z,102885.69
2022-11-12T12:43:52.385Z,102873.09
2022-11-12T12:46:45.006Z,102875.09
2022-11-12T12:49:34.211Z,102879.69
2022-11-12T12:52:19.373Z,102871.44
2022-11-12T12:55:04.555Z,102865.91
2022-11-12T12:57:58.810Z,102862.06
2022-11-12T13:00:50.482Z,102854.41
2022-11-12T13:03:44.430Z,102847.16
2022-11-12T13:06:34.310Z,102849.97
2022-11-12T13:09:19.214Z,102854.41
2022-11-12T13:12:04.790Z,102846.88
2022-11-12T13:14:53.254Z,102842.22
2022-11-12T13:17:44.508Z,102839.47
2022-11-12T13:20:38.633Z,102854.47
2022-11-12T13:24:02.730Z,102847.66
2022-11-12T13:26:52.636Z,102861.06
2022-11-12T13:29:37.851Z,102859.81
2022-11-12T13:32:30.669Z,102846.34
2022-11-12T13:35:21.889Z,102860.19
2022-11-12T13:38:12.900Z,102863.94
2022-11-12T13:41:17.466Z,102867.84
2022-11-12T13:44:07.864Z,102869.22
2022-11-12T13:46:55.635Z,102869.47
2022-11-12T13:49:42.148Z,102857.69
2022-11-12T13:52:28.859Z,102861.47
2022-11-12T13:55:16.753Z,102862.72
2022-11-12T13:58:01.935Z,102859.97
2022-11-12T14:00:59.581Z,102860.75
2022-11-12T14:03:48.225Z,102860.69
2022-11-12T14:06:40.904Z,102849.31
2022-11-12T14:09:50.935Z,102860.63
2022-11-12T14:13:04.642Z,102847.25
2022-11-12T14:15:59.131Z,102852.88
2022-11-12T14:19:09.612Z,102849.50
2022-11-12T14:22:18.587Z,102846.09
2022-11-12T14:25:04.042Z,102844.97
2022-11-12T14:27:51.407Z,102857.84
2022-11-12T14:30:44.624Z,102844.41
2022-11-12T14:33:31.873Z,102841.34
2022-11-12T14:36:19.022Z,102831.16
2022-11-12T14:39:04.037Z,102840.06
2022-11-12T14:41:50.892Z,102837.78
2022-11-12T14:44:37.954Z,102835.81
2022-11-12T14:47:24.156Z,102828.38
2022-11-12T14:50:16.315Z,102830.03
2022-11-12T14:53:25.245Z,102833.19
2022-11-12T14:56:35.326Z,102839.72
2022-11-12T14:59:21.222Z,102830.09
2022-11-12T15:02:42.734Z,102835.66
2022-11-12T15:05:23.339Z,102840.06
2022-11-12T15:08:11.472Z,102834.34
2022-11-12T15:11:16.267Z,102835.22
2022-11-12T15:14:05.830Z,102833.28
2022-11-12T15:16:51.642Z,102834.22
2022-11-12T15:19:41.636Z,102822.16
2022-11-12T15:22:26.930Z,102832.88
2022-11-12T15:25:30.007Z,102841.81
2022-11-12T15:28:23.457Z,102829.09
2022-11-12T15:31:18.621Z,102829.44
2022-11-12T15:34:25.442Z,102829.91
2022-11-12T15:37:19.679Z,102832.75
2022-11-12T15:40:12.406Z,102833.47
2022-11-12T15:42:57.930Z,102836.03
2022-11-12T15:45:43.006Z,102836.84
2022-11-12T15:48:28.418Z,102838.00
2022-11-12T15:51:16.031Z,102850.09
2022-11-12T15:54:00.986Z,102846.28
2022-11-12T15:56:46.501Z,102844.97
2022-11-12T15:59:31.790Z,102848.91
2022-11-12T16:02:16.972Z,102855.81
2022-11-12T16:05:01.999Z,102855.34
2022-11-12T16:07:47.200Z,102851.94
2022-11-12T16:10:32.037Z,102848.84
2022-11-12T16:13:26.656Z,102849.44
2022-11-12T16:16:12.009Z,102852.47
2022-11-12T16:18:57.306Z,102855.19
2022-11-12T16:21:42.211Z,102846.81
2022-11-12T16:24:27.793Z,102847.34
2022-11-12T16:27:16.212Z,102846.47
2022-11-12T16:30:01.040Z,102846.88
2022-11-12T16:32:48.179Z,102846.66
2022-11-12T16:35:35.308Z,102851.66
2022-11-12T16:38:20.116Z,102852.56
2022-11-12T16:41:05.263Z,102854.66
2022-11-12T16:43:51.504Z,102847.63
2022-11-12T16:46:40.197Z,102850.88
2022-11-12T16:49:26.149Z,102844.97
2022-11-12T16:52:11.462Z,102847.63
2022-11-12T16:55:01.522Z,102859.47
2022-11-12T16:57:49.046Z,102853.03
2022-11-12T17:00:35.117Z,102848.00
2022-11-12T17:03:19.995Z,102847.28
2022-11-12T17:06:04.977Z,102846.84
2022-11-12T17:08:54.399Z,102847.53
2022-11-12T17:11:39.215Z,102847.28
2022-11-12T17:14:28.135Z,102841.50
2022-11-12T17:17:13.689Z,102835.31
2022-11-12T17:19:59.146Z,102838.94
2022-11-12T17:22:44.138Z,102844.81
2022-11-12T17:25:28.916Z,102836.00
2022-11-12T17:28:13.879Z,102842.91
2022-11-12T17:31:03.856Z,102838.38
2022-11-12T17:33:52.970Z,102837.78
2022-11-12T17:36:43.204Z,102839.06
2022-11-12T17:39:28.749Z,102843.78
2022-11-12T17:42:13.786Z,102847.47
2022-11-12T17:44:58.615Z,102843.19
2022-11-12T17:47:43.605Z,102844.66
2022-11-12T17:50:28.389Z,102850.69
2022-11-12T17:53:13.539Z,102844.44
2022-11-12T17:55:59.209Z,102847.88
2022-11-12T17:58:47.843Z,102843.19
2022-11-12T18:01:34.497Z,102839.53
2022-11-12T18:04:20.281Z,102842.31
2022-11-12T18:07:07.369Z,102851.09
2022-11-12T18:09:52.324Z,102850.47
2022-11-12T18:12:37.174Z,102848.09
2022-11-12T18:15:22.137Z,102845.50
2022-11-12T18:18:06.983Z,102847.44
2022-11-12T18:20:52.104Z,102847.25
2022-11-12T18:23:38.717Z,102851.09
2022-11-12T18:26:24.011Z,102844.25
2022-11-12T18:29:09.197Z,102851.09
2022-11-12T18:31:54.331Z,102842.94
2022-11-12T18:34:44.448Z,102834.13
2022-11-12T18:37:29.860Z,102840.13
2022-11-12T18:40:14.901Z,102834.97
2022-11-12T18:43:00.150Z,102831.72
2022-11-12T18:45:53.689Z,102836.25
2022-11-12T18:48:40.332Z,102839.25
2022-11-12T18:51:25.314Z,102841.59
2022-11-12T18:54:10.263Z,102837.06
2022-11-12T18:56:55.031Z,102843.66
2022-11-12T18:59:40.194Z,102850.97
2022-11-12T19:02:25.018Z,102843.22
2022-11-12T19:05:09.909Z,102845.16
2022-11-12T19:07:54.880Z,102840.44
2022-11-12T19:10:40.188Z,102844.94
2022-11-12T19:13:25.951Z,102845.09
2022-11-12T19:16:14.377Z,102841.41
2022-11-12T19:18:59.271Z,102838.25
2022-11-12T19:21:44.496Z,102839.28
2022-11-12T19:24:30.671Z,102846.97
2022-11-12T19:27:15.733Z,102847.03
2022-11-12T19:30:03.307Z,102844.25
2022-11-12T19:32:48.667Z,102844.78
2022-11-12T19:35:33.575Z,102841.16
2022-11-12T19:38:18.367Z,102853.31
2022-11-12T19:41:08.335Z,102848.16
2022-11-12T19:43:53.784Z,102843.00
2022-11-12T19:46:38.660Z,102848.56
2022-11-12T19:49:26.416Z,102847.88
2022-11-12T19:52:11.725Z,102843.41
2022-11-12T19:55:00.892Z,102840.16
2022-11-12T19:57:45.962Z,102848.22
2022-11-12T20:00:31.076Z,102850.16
2022-11-12T20:03:18.019Z,102855.53
2022-11-12T20:06:08.230Z,102846.50
2022-11-12T20:08:53.460Z,102848.66
2022-11-12T20:11:38.260Z,102859.31
2022-11-12T20:14:23.256Z,102857.00
2022-11-12T20:17:08.392Z,102859.78
2022-11-12T20:19:53.231Z,102852.41
2022-11-12T20:22:38.083Z,102853.03
2022-11-12T20:25:22.982Z,102845.97
2022-11-12T20:28:07.991Z,102844.88
2022-11-12T20:30:59.689Z,102852.78
2022-11-12T20:33:44.786Z,102851.25
2022-11-12T20:36:31.334Z,102850.34
2022-11-12T20:39:16.514Z,102858.34
2022-11-12T20:42:01.601Z,102859.50
2022-11-12T20:44:46.742Z,102851.25
2022-11-12T20:47:31.660Z,102853.34
2022-11-12T20:50:16.807Z,102851.16
2022-11-12T20:53:01.925Z,102842.13
2022-11-12T20:55:46.889Z,102847.31
2022-11-12T20:58:31.916Z,102845.19
2022-11-12T21:01:19.590Z,102840.91
2022-11-12T21:04:04.769Z,102842.34
2022-11-12T21:06:50.212Z,102841.75
2022-11-12T21:09:35.607Z,102839.09
2022-11-12T21:12:20.469Z,102840.50
2022-11-12T21:15:05.933Z,102837.94
2022-11-12T21:17:51.827Z,102839.84
2022-11-12T21:20:36.879Z,102841.22
2022-11-12T21:23:22.249Z,102834.75
2022-11-12T21:26:13.061Z,102831.72
2022-11-12T21:28:58.341Z,102835.81
2022-11-12T21:31:43.478Z,102837.78
2022-11-12T21:34:28.928Z,102831.31
2022-11-12T21:37:13.862Z,102830.75
2022-11-12T21:39:58.879Z,102830.41
2022-11-12T21:42:44.897Z,102826.69
2022-11-12T21:45:29.831Z,102821.81
2022-11-12T21:48:14.788Z,102815.25
2022-11-12T21:51:12.205Z,102817.81
2022-11-12T21:54:02.454Z,102819.38
2022-11-12T21:56:47.643Z,102811.53
2022-11-12T21:59:32.905Z,102810.59
2022-11-12T22:02:17.792Z,102810.56
2022-11-12T22:05:02.580Z,102808.41
2022-11-12T22:07:47.387Z,102805.47
2022-11-12T22:10:32.480Z,102808.22
2022-11-12T22:13:26.855Z,102799.47
2022-11-12T22:16:15.400Z,102802.28
2022-11-12T22:19:00.738Z,102805.47
2022-11-12T22:21:45.927Z,102804.88
2022-11-12T22:24:30.814Z,102795.91
2022-11-12T22:27:15.649Z,102795.31
2022-11-12T22:30:00.569Z,102796.03
2022-11-12T22:32:45.469Z,102790.97
2022-11-12T22:35:30.381Z,102788.06
2022-11-12T22:38:15.303Z,102782.13
2022-11-12T22:41:01.932Z,102782.16
2022-11-12T22:43:48.950Z,102780.91
2022-11-12T22:46:34.689Z,102770.91
2022-11-12T22:49:19.613Z,102769.63
2022-11-12T22:52:04.738Z,102778.19
2022-11-12T22:54:49.806Z,102775.41
2022-11-12T22:57:34.753Z,102773.91
2022-11-12T23:00:29.133Z,102766.41
2022-11-12T23:03:14.221Z,102774.53
2022-11-12T23:06:00.581Z,102772.06
2022-11-12T23:08:45.883Z,102771.69
2022-11-12T23:11:31.625Z,102763.09
2022-11-12T23:14:16.561Z,102775.56
2022-11-12T23:17:01.987Z,102771.72
2022-11-12T23:19:46.958Z,102768.09
2022-11-12T23:22:31.900Z,102761.69
2022-11-12T23:25:16.858Z,102767.72
2022-11-12T23:28:01.802Z,102773.94
2022-11-12T23:30:52.860Z,102772.88
2022-11-12T23:33:38.364Z,102778.66
2022-11-12T23:36:25.075Z,102776.09
2022-11-12T23:39:10.185Z,102776.50
2022-11-12T23:41:55.091Z,102767.09
2022-11-12T23:44:40.217Z,102760.03
2022-11-12T23:47:25.402Z,102751.03
2022-11-12T23:50:10.573Z,102756.81
2022-11-12T23:52:55.383Z,102753.81
2022-11-12T23:55:41.179Z,102751.66
2022-11-12T23:58:26.534Z,102751.88
